Telluride Airport South Webcam

Telluride Airport North Webcam


Local Weather

METAR KTEX 210735Z AUTO 17009G16KT 10SM OVC080 05/M18 A3019 RMK AO2

TAF KTEX 210520Z 2106/2206 14004KT P6SM BKN120 WS020/22030KT FM211700 20011G21KT P6SM SCT070 BKN250 WS020/22030KT FM212000 22015G25KT P6SM VCSH SCT060 BKN080 FM220000 25012KT P6SM VCSH OVC050

** THIS IS NOT AN OFFICIAL WEATHER REPORT AND MAY NOT BE RELIABLE **